Time;durP1;ratioP1;P1;durP2;ratioP2;P2;SDS_P1;SDS_P2;PMS_P1;PMS_P2;Temp;Humidity;BMP_temperature;BMP_pressure;BME280_temperature;BME280_humidity;BME280_pressure;Samples;Min_cycle;Max_cycle;Signal;HPM_P1;HPM_P2
2023/10/21 00:02:26;;;;;;;0.20;0.20;;;20.40;71.70;;;;;;5051065;28;20222;-69
2023/10/21 00:04:53;;;;;;;1.43;0.47;;;20.50;71.90;;;;;;5027396;28;20678;-69
2023/10/21 00:07:22;;;;;;;2.47;0.40;;;20.40;72.10;;;;;;4997659;28;20199;-69
2023/10/21 00:09:50;;;;;;;0.37;0.20;;;20.40;71.50;;;;;;5014538;28;20202;-68
2023/10/21 00:12:17;;;;;;;0.30;0.20;;;20.40;70.90;;;;;;5014481;28;20207;-69
2023/10/21 00:14:45;;;;;;;0.40;0.40;;;20.40;70.80;;;;;;5014283;28;20231;-69
2023/10/21 00:17:12;;;;;;;1.13;0.60;;;20.40;71.40;;;;;;5026531;28;20202;-68
2023/10/21 00:19:39;;;;;;;0.33;0.33;;;20.50;71.10;;;;;;5034756;28;20226;-69
2023/10/21 00:22:06;;;;;;;0.63;0.57;;;20.50;70.80;;;;;;5034175;28;20327;-69
2023/10/21 00:24:32;;;;;;;0.30;0.30;;;20.50;71.10;;;;;;5033156;28;20604;-69
2023/10/21 00:27:01;;;;;;;0.63;0.30;;;20.50;70.70;;;;;;5034400;28;20237;-69
2023/10/21 00:29:28;;;;;;;0.73;0.40;;;20.50;70.50;;;;;;5034249;28;20629;-69
2023/10/21 00:31:57;;;;;;;0.20;0.20;;;20.50;70.70;;;;;;5015048;28;20228;-69
2023/10/21 00:34:24;;;;;;;1.33;0.43;;;20.50;71.00;;;;;;5034331;28;20202;-68
2023/10/21 00:36:51;;;;;;;1.03;0.30;;;20.50;70.80;;;;;;5033754;28;20286;-69
2023/10/21 00:39:17;;;;;;;0.90;0.70;;;20.50;71.00;;;;;;5034064;28;20206;-68
2023/10/21 00:41:44;;;;;;;0.50;0.30;;;20.50;70.70;;;;;;5032004;28;20294;-69
2023/10/21 00:44:13;;;;;;;0.20;0.20;;;20.40;70.70;;;;;;5014923;28;20230;-69
2023/10/21 00:46:41;;;;;;;1.37;0.37;;;20.40;71.30;;;;;;5017453;28;20226;-69
2023/10/21 00:49:08;;;;;;;0.70;0.30;;;20.40;71.60;;;;;;5034048;28;20239;-69
2023/10/21 00:51:35;;;;;;;1.10;0.30;;;20.30;71.90;;;;;;5033056;28;20207;-69
2023/10/21 00:54:04;;;;;;;1.07;0.40;;;20.20;72.40;;;;;;5027586;28;20237;-69
2023/10/21 00:56:32;;;;;;;0.30;0.30;;;20.20;73.00;;;;;;5029905;28;20289;-69
2023/10/21 00:58:59;;;;;;;0.43;0.40;;;20.20;73.40;;;;;;5020329;28;20200;-69
2023/10/21 01:01:27;;;;;;;0.23;0.23;;;20.10;73.70;;;;;;5025957;28;20229;-69
2023/10/21 01:03:54;;;;;;;0.80;0.30;;;20.20;74.50;;;;;;5033307;28;20207;-69
2023/10/21 01:06:21;;;;;;;1.13;0.47;;;20.10;75.00;;;;;;5015788;28;20617;-69
2023/10/21 01:08:48;;;;;;;0.87;0.50;;;20.00;75.40;;;;;;5015621;28;20207;-69
2023/10/21 01:11:15;;;;;;;0.90;0.83;;;20.00;75.90;;;;;;5024549;28;20261;-69
2023/10/21 01:13:44;;;;;;;0.47;0.40;;;20.00;76.10;;;;;;5016342;28;20211;-69
2023/10/21 01:16:11;;;;;;;1.00;0.70;;;19.90;76.30;;;;;;5016371;28;20621;-69
2023/10/21 01:18:40;;;;;;;0.37;0.33;;;19.80;76.30;;;;;;5020615;28;20227;-69
2023/10/21 01:21:06;;;;;;;0.73;0.40;;;19.70;76.90;;;;;;5021859;28;20254;-69
2023/10/21 01:23:35;;;;;;;0.80;0.43;;;19.80;77.00;;;;;;5027378;28;20503;-69
2023/10/21 01:26:02;;;;;;;0.97;0.37;;;19.80;77.10;;;;;;5018371;28;20195;-70
2023/10/21 01:28:30;;;;;;;0.40;0.40;;;19.80;77.00;;;;;;5013424;28;20203;-69
2023/10/21 01:30:57;;;;;;;6.10;0.50;;;19.80;77.10;;;;;;5020316;28;20222;-69
2023/10/21 01:33:23;;;;;;;2.43;0.50;;;19.70;77.20;;;;;;5018742;28;20206;-69
2023/10/21 01:35:50;;;;;;;1.10;0.50;;;19.80;77.50;;;;;;5012651;28;20231;-69
2023/10/21 01:38:18;;;;;;;3.07;0.40;;;19.80;77.10;;;;;;5013392;28;20203;-69
2023/10/21 01:40:47;;;;;;;1.93;0.43;;;19.80;77.20;;;;;;5017684;28;20706;-70
2023/10/21 01:43:14;;;;;;;0.80;0.67;;;19.80;77.20;;;;;;5018302;28;20301;-69
2023/10/21 01:45:40;;;;;;;1.27;0.50;;;19.90;77.10;;;;;;4981673;28;20273;-69
2023/10/21 01:48:08;;;;;;;0.60;0.50;;;19.90;77.00;;;;;;5027936;28;20208;-70
2023/10/21 01:50:36;;;;;;;1.47;0.30;;;19.90;76.50;;;;;;5014196;28;20203;-70
2023/10/21 01:53:03;;;;;;;0.93;0.57;;;19.90;76.60;;;;;;5052423;28;20236;-69
2023/10/21 01:55:29;;;;;;;0.70;0.50;;;19.90;76.40;;;;;;5048268;28;20198;-69
2023/10/21 01:57:58;;;;;;;1.13;0.40;;;19.80;76.30;;;;;;5030165;28;20227;-69
2023/10/21 02:00:25;;;;;;;1.13;0.37;;;19.90;76.50;;;;;;5015526;28;20247;-69
2023/10/21 02:02:53;;;;;;;0.40;0.40;;;19.80;76.40;;;;;;5029536;28;20202;-70
2023/10/21 02:05:20;;;;;;;0.70;0.50;;;19.80;76.30;;;;;;5029520;28;20209;-69
2023/10/21 02:07:47;;;;;;;0.47;0.43;;;19.80;76.50;;;;;;5023072;28;20203;-69
2023/10/21 02:10:17;;;;;;;1.17;0.50;;;19.90;76.70;;;;;;5031657;28;20236;-69
2023/10/21 02:12:44;;;;;;;1.80;0.50;;;19.80;76.70;;;;;;5016116;28;20199;-69
2023/10/21 02:15:14;;;;;;;0.77;0.40;;;19.80;77.00;;;;;;5014991;28;20229;-69
2023/10/21 02:17:41;;;;;;;0.93;0.33;;;19.80;77.50;;;;;;5030140;28;20194;-69
2023/10/21 02:20:11;;;;;;;0.50;0.50;;;19.70;77.70;;;;;;5018767;28;20223;-69
2023/10/21 02:22:38;;;;;;;1.30;0.40;;;19.70;78.30;;;;;;5027507;28;20566;-68
2023/10/21 02:25:08;;;;;;;0.80;0.40;;;19.60;79.80;;;;;;5015203;28;20203;-69
2023/10/21 02:27:35;;;;;;;0.40;0.40;;;19.40;80.50;;;;;;5026550;28;20200;-70
2023/10/21 02:30:02;;;;;;;0.50;0.50;;;19.30;81.80;;;;;;5014689;28;20195;-69
2023/10/21 02:32:32;;;;;;;0.80;0.40;;;19.30;81.80;;;;;;4980159;28;20297;-69
2023/10/21 02:34:59;;;;;;;0.60;0.40;;;19.30;81.90;;;;;;5032152;28;20229;-69
2023/10/21 02:37:26;;;;;;;0.67;0.47;;;19.30;82.40;;;;;;5014136;28;20207;-69
2023/10/21 02:39:52;;;;;;;1.13;0.67;;;19.30;82.40;;;;;;5012050;28;20242;-69
2023/10/21 02:42:20;;;;;;;0.90;0.40;;;19.30;82.30;;;;;;5014713;28;20214;-69
2023/10/21 02:44:51;;;;;;;2.47;0.53;;;19.30;82.00;;;;;;5012002;28;20246;-69
2023/10/21 02:47:19;;;;;;;0.37;0.37;;;19.40;82.20;;;;;;5011866;28;20326;-69
2023/10/21 02:49:47;;;;;;;0.50;0.50;;;19.30;81.90;;;;;;4978351;28;20211;-69
2023/10/21 02:52:14;;;;;;;0.87;0.67;;;19.40;81.80;;;;;;5023605;28;20202;-69
2023/10/21 02:54:41;;;;;;;1.90;0.57;;;19.40;81.10;;;;;;5031895;28;20217;-69
2023/10/21 02:57:08;;;;;;;0.33;0.33;;;19.40;81.00;;;;;;5031783;28;20313;-69
2023/10/21 02:59:35;;;;;;;0.60;0.60;;;19.30;80.70;;;;;;5032136;28;20206;-69
2023/10/21 03:02:02;;;;;;;0.57;0.30;;;19.40;80.80;;;;;;5021615;28;20587;-68
2023/10/21 03:04:29;;;;;;;0.43;0.40;;;19.40;80.30;;;;;;4981329;28;20631;-69
2023/10/21 03:06:57;;;;;;;1.47;0.50;;;19.40;80.30;;;;;;5012531;28;20203;-69
2023/10/21 03:09:24;;;;;;;0.53;0.53;;;19.30;80.00;;;;;;5031158;28;20210;-69
2023/10/21 03:11:50;;;;;;;0.80;0.77;;;19.40;80.10;;;;;;5027210;28;20202;-69
2023/10/21 03:14:17;;;;;;;0.70;0.50;;;19.40;79.50;;;;;;5018540;28;20222;-69
2023/10/21 03:16:44;;;;;;;1.53;0.50;;;19.40;79.50;;;;;;5030510;28;20202;-69
2023/10/21 03:19:11;;;;;;;0.90;0.67;;;19.50;79.20;;;;;;5014566;28;20210;-69
2023/10/21 03:21:38;;;;;;;0.60;0.60;;;19.50;78.90;;;;;;5015813;28;20710;-70
2023/10/21 03:24:07;;;;;;;0.30;0.30;;;19.60;78.50;;;;;;5016851;28;20199;-70
2023/10/21 03:26:34;;;;;;;0.67;0.57;;;19.50;78.50;;;;;;5011608;28;20249;-69
2023/10/21 03:29:00;;;;;;;0.30;0.30;;;19.60;78.80;;;;;;5011248;28;20205;-69
2023/10/21 03:31:28;;;;;;;0.50;0.50;;;19.60;78.40;;;;;;5015638;28;20548;-69
2023/10/21 03:33:54;;;;;;;0.50;0.30;;;19.60;78.40;;;;;;5027123;28;20222;-69
2023/10/21 03:36:21;;;;;;;1.00;0.60;;;19.60;78.40;;;;;;4995111;28;20192;-70
2023/10/21 03:38:48;;;;;;;0.47;0.47;;;19.60;78.10;;;;;;5028948;28;20223;-69
2023/10/21 03:41:16;;;;;;;0.87;0.40;;;19.60;78.20;;;;;;5027898;28;20220;-69
2023/10/21 03:43:43;;;;;;;0.67;0.43;;;19.70;77.90;;;;;;5028854;28;20214;-68
2023/10/21 03:46:14;;;;;;;0.77;0.60;;;19.70;77.70;;;;;;5018557;28;20226;-69
2023/10/21 03:48:41;;;;;;;1.23;0.50;;;19.70;77.80;;;;;;5030401;28;20241;-69
2023/10/21 03:51:11;;;;;;;0.20;0.20;;;19.70;77.80;;;;;;5027418;28;20199;-69
2023/10/21 03:53:38;;;;;;;1.73;0.63;;;19.70;78.50;;;;;;5027614;28;20200;-69
2023/10/21 03:56:05;;;;;;;1.43;0.70;;;19.70;77.70;;;;;;5020997;28;20199;-69
2023/10/21 03:58:33;;;;;;;0.60;0.60;;;19.70;77.30;;;;;;5014676;28;20202;-69
2023/10/21 04:01:00;;;;;;;0.87;0.40;;;19.70;77.70;;;;;;5015797;28;20322;-70
2023/10/21 04:03:28;;;;;;;1.30;0.70;;;19.70;77.70;;;;;;5014315;28;20241;-69
2023/10/21 04:05:55;;;;;;;1.27;0.60;;;19.70;77.70;;;;;;5030981;28;20557;-69
2023/10/21 04:08:23;;;;;;;0.70;0.50;;;19.70;77.60;;;;;;5014674;28;20226;-69
2023/10/21 04:10:50;;;;;;;0.50;0.50;;;19.70;77.70;;;;;;5017973;28;20781;-69
2023/10/21 04:13:17;;;;;;;1.70;0.97;;;19.80;77.60;;;;;;5017760;28;20207;-69
2023/10/21 04:15:49;;;;;;;0.67;0.67;;;19.70;77.50;;;;;;5028270;28;20717;-70
2023/10/21 04:18:16;;;;;;;1.40;0.57;;;19.70;77.70;;;;;;5022430;28;20206;-70
2023/10/21 04:20:42;;;;;;;0.93;0.60;;;19.70;77.50;;;;;;5029677;28;20222;-69
2023/10/21 04:23:09;;;;;;;0.67;0.63;;;19.70;77.20;;;;;;5014346;28;20299;-69
2023/10/21 04:25:36;;;;;;;1.90;0.60;;;19.70;77.30;;;;;;5029540;28;20203;-69
2023/10/21 04:28:03;;;;;;;0.50;0.50;;;19.70;77.10;;;;;;5020394;28;20229;-69
2023/10/21 04:30:31;;;;;;;0.70;0.47;;;19.70;77.10;;;;;;5026561;28;20205;-69
2023/10/21 04:32:59;;;;;;;1.17;0.47;;;19.70;77.00;;;;;;5034650;28;20256;-69
2023/10/21 04:35:26;;;;;;;1.70;0.67;;;19.60;77.00;;;;;;5030546;28;20201;-69
2023/10/21 04:37:54;;;;;;;2.17;0.90;;;19.60;77.10;;;;;;5037131;28;20201;-69
2023/10/21 04:40:21;;;;;;;0.40;0.33;;;19.50;77.20;;;;;;5035433;28;20219;-69
2023/10/21 04:42:48;;;;;;;1.17;0.50;;;19.50;77.20;;;;;;5025398;28;20206;-69
2023/10/21 04:45:15;;;;;;;2.00;0.60;;;19.50;77.40;;;;;;5033487;28;20318;-69
2023/10/21 04:47:42;;;;;;;0.67;0.50;;;19.50;77.20;;;;;;5034300;28;20229;-69
2023/10/21 04:50:10;;;;;;;1.07;0.53;;;19.60;77.50;;;;;;5033595;28;20230;-69
2023/10/21 04:52:38;;;;;;;1.00;0.50;;;19.50;77.50;;;;;;5016695;28;20207;-69
2023/10/21 04:55:06;;;;;;;2.00;1.00;;;19.60;77.60;;;;;;5014063;28;20210;-69
2023/10/21 04:57:33;;;;;;;0.30;0.30;;;19.50;77.50;;;;;;5013744;28;20222;-68
2023/10/21 05:00:00;;;;;;;0.87;0.60;;;19.50;78.30;;;;;;5028873;28;20301;-68
2023/10/21 05:02:28;;;;;;;0.50;0.40;;;19.60;77.60;;;;;;5017881;28;20540;-69
2023/10/21 05:04:55;;;;;;;0.70;0.50;;;19.60;77.60;;;;;;5012749;28;20266;-69
2023/10/21 05:07:23;;;;;;;1.03;0.60;;;19.70;77.70;;;;;;5014089;28;20269;-68
2023/10/21 05:09:50;;;;;;;0.80;0.50;;;19.60;77.60;;;;;;5013785;28;20446;-69
2023/10/21 05:12:19;;;;;;;2.00;0.70;;;19.70;77.70;;;;;;5020222;28;20584;-68
2023/10/21 05:14:46;;;;;;;0.70;0.63;;;19.70;77.70;;;;;;5014855;28;20241;-68
2023/10/21 05:17:13;;;;;;;0.60;0.60;;;19.70;77.70;;;;;;5030072;28;20286;-70
2023/10/21 05:19:39;;;;;;;0.37;0.37;;;19.60;77.60;;;;;;5033184;28;20317;-68
2023/10/21 05:22:06;;;;;;;0.77;0.63;;;19.60;78.00;;;;;;5021710;28;20230;-69
2023/10/21 05:24:36;;;;;;;0.40;0.40;;;19.70;78.10;;;;;;5020580;28;20209;-69
2023/10/21 05:27:02;;;;;;;3.03;0.63;;;19.60;78.20;;;;;;5033320;28;20260;-69
2023/10/21 05:29:29;;;;;;;0.50;0.50;;;19.60;78.20;;;;;;5033321;28;20625;-69
2023/10/21 05:31:56;;;;;;;1.00;0.63;;;19.50;79.10;;;;;;5031891;28;20206;-69
2023/10/21 05:34:23;;;;;;;0.77;0.60;;;19.50;78.30;;;;;;5033468;28;20292;-69
2023/10/21 05:36:50;;;;;;;1.37;0.50;;;19.50;78.40;;;;;;5020569;28;20234;-69
2023/10/21 05:39:18;;;;;;;1.87;0.60;;;19.50;78.50;;;;;;5031639;28;20220;-69
2023/10/21 05:41:46;;;;;;;0.50;0.50;;;19.50;78.50;;;;;;5029383;28;20233;-69
2023/10/21 05:44:13;;;;;;;1.33;0.60;;;19.50;78.60;;;;;;5012428;28;20766;-69
2023/10/21 05:46:40;;;;;;;0.70;0.60;;;19.50;79.20;;;;;;5017965;28;20227;-69
2023/10/21 05:49:06;;;;;;;0.50;0.50;;;19.60;78.50;;;;;;5018207;28;20203;-69
2023/10/21 05:51:33;;;;;;;0.40;0.40;;;19.40;78.50;;;;;;5021100;28;20203;-68
2023/10/21 05:54:00;;;;;;;1.13;0.50;;;19.40;78.90;;;;;;5024297;28;20657;-69
2023/10/21 05:56:27;;;;;;;1.43;0.40;;;19.40;79.10;;;;;;5033717;28;20246;-68
2023/10/21 05:58:55;;;;;;;0.90;0.60;;;19.40;79.80;;;;;;5031070;28;20295;-69
2023/10/21 06:01:23;;;;;;;1.67;0.80;;;19.40;79.20;;;;;;5031257;28;20273;-69
2023/10/21 06:03:51;;;;;;;2.10;0.60;;;19.40;79.40;;;;;;5045919;28;20237;-69
2023/10/21 06:06:19;;;;;;;0.77;0.50;;;19.30;79.60;;;;;;5048708;28;20241;-70
2023/10/21 06:08:46;;;;;;;0.50;0.50;;;19.30;79.80;;;;;;5022838;28;20207;-68
2023/10/21 06:11:13;;;;;;;0.50;0.50;;;19.30;79.80;;;;;;5020655;28;20194;-69
2023/10/21 06:13:40;;;;;;;0.50;0.50;;;19.20;79.90;;;;;;5014794;28;20287;-68
2023/10/21 06:16:09;;;;;;;1.33;0.60;;;19.20;80.00;;;;;;5012082;28;20571;-68
2023/10/21 06:18:36;;;;;;;1.33;0.60;;;19.20;80.00;;;;;;5015419;28;20230;-69
2023/10/21 06:21:03;;;;;;;1.47;0.60;;;19.10;80.20;;;;;;5028891;28;20205;-69
2023/10/21 06:23:31;;;;;;;1.57;0.70;;;19.10;80.30;;;;;;5032019;28;20210;-69
2023/10/21 06:25:58;;;;;;;0.97;0.70;;;19.20;80.30;;;;;;5031961;28;20202;-69
2023/10/21 06:28:25;;;;;;;0.70;0.60;;;19.20;80.20;;;;;;5032394;28;20207;-68
2023/10/21 06:30:52;;;;;;;0.70;0.50;;;19.30;80.00;;;;;;5023175;28;20655;-68
2023/10/21 06:33:20;;;;;;;1.03;0.60;;;19.30;79.80;;;;;;5019324;28;20194;-69
2023/10/21 06:35:48;;;;;;;0.50;0.50;;;19.30;80.00;;;;;;5025957;28;20233;-69
2023/10/21 06:38:16;;;;;;;0.70;0.60;;;19.30;80.40;;;;;;4972296;28;20199;-68
2023/10/21 06:40:44;;;;;;;0.53;0.50;;;19.30;79.60;;;;;;5012358;28;20221;-69
2023/10/21 06:43:11;;;;;;;0.57;0.50;;;19.40;79.40;;;;;;5023894;28;20313;-68
2023/10/21 06:45:38;;;;;;;0.83;0.50;;;19.40;79.20;;;;;;5028325;28;20578;-68
2023/10/21 06:48:06;;;;;;;1.63;0.70;;;19.40;79.30;;;;;;5026958;28;20222;-69
2023/10/21 06:50:36;;;;;;;0.87;0.63;;;19.40;79.00;;;;;;5018238;28;20291;-69
2023/10/21 06:53:03;;;;;;;1.47;0.87;;;19.50;78.80;;;;;;5029948;28;20199;-69
2023/10/21 06:55:30;;;;;;;1.67;0.60;;;19.50;78.80;;;;;;5028067;28;20226;-68
2023/10/21 06:57:58;;;;;;;0.60;0.50;;;19.50;78.30;;;;;;5017153;28;20210;-69
2023/10/21 07:00:25;;;;;;;1.77;0.43;;;19.50;78.20;;;;;;5011437;28;20219;-69
2023/10/21 07:02:52;;;;;;;1.17;0.63;;;19.50;77.70;;;;;;5011471;28;20698;-68
2023/10/21 07:05:19;;;;;;;0.83;0.60;;;19.50;77.70;;;;;;5011778;28;20207;-68
2023/10/21 07:07:47;;;;;;;0.70;0.70;;;19.60;77.80;;;;;;5030913;28;20234;-69
2023/10/21 07:10:14;;;;;;;0.50;0.50;;;19.70;77.90;;;;;;5018115;28;20675;-69
2023/10/21 07:12:41;;;;;;;1.37;0.77;;;19.70;77.60;;;;;;5013664;28;20195;-68
2023/10/21 07:15:10;;;;;;;0.60;0.60;;;19.80;77.50;;;;;;5011593;28;20317;-68
2023/10/21 07:17:38;;;;;;;1.00;0.60;;;19.80;77.10;;;;;;5029439;28;20202;-68
2023/10/21 07:20:07;;;;;;;0.70;0.70;;;19.80;77.30;;;;;;5031706;28;20234;-69
2023/10/21 07:22:34;;;;;;;1.03;0.67;;;19.70;77.00;;;;;;5029486;28;20309;-69
2023/10/21 07:25:02;;;;;;;0.40;0.40;;;19.70;77.30;;;;;;5031187;28;20212;-69
2023/10/21 07:27:29;;;;;;;1.20;0.90;;;19.80;77.50;;;;;;5017537;28;20754;-69
2023/10/21 07:29:56;;;;;;;0.43;0.43;;;19.80;77.60;;;;;;5017094;28;20211;-69
2023/10/21 07:32:24;;;;;;;0.77;0.40;;;19.70;77.70;;;;;;5015072;28;20233;-69
2023/10/21 07:34:51;;;;;;;1.27;0.67;;;19.80;77.80;;;;;;5029049;28;20213;-70
2023/10/21 07:37:18;;;;;;;1.17;0.60;;;19.90;78.00;;;;;;5024638;28;20199;-70
2023/10/21 07:39:45;;;;;;;3.23;0.80;;;19.80;77.80;;;;;;5015118;28;20598;-70
2023/10/21 07:42:14;;;;;;;1.43;0.60;;;19.90;78.40;;;;;;5018731;28;20218;-70
2023/10/21 07:44:41;;;;;;;0.67;0.67;;;20.00;78.00;;;;;;5016413;28;20225;-70
2023/10/21 07:47:08;;;;;;;1.17;0.60;;;20.20;77.60;;;;;;5014928;28;20596;-70
2023/10/21 07:49:35;;;;;;;0.73;0.70;;;20.20;77.30;;;;;;5018729;28;20841;-70
2023/10/21 07:52:04;;;;;;;0.80;0.60;;;20.20;77.20;;;;;;5004672;28;20248;-70
2023/10/21 07:54:31;;;;;;;1.10;0.70;;;20.20;76.90;;;;;;5014844;28;20230;-69
2023/10/21 07:56:58;;;;;;;0.83;0.80;;;20.10;76.80;;;;;;5020332;28;20567;-71
2023/10/21 07:59:27;;;;;;;1.27;0.60;;;20.00;77.50;;;;;;5034403;28;20688;-72
2023/10/21 08:01:55;;;;;;;0.50;0.50;;;20.20;77.50;;;;;;5030871;28;20590;-72
2023/10/21 08:04:22;;;;;;;2.53;0.70;;;20.20;77.50;;;;;;5022349;28;20230;-72
2023/10/21 08:06:49;;;;;;;0.60;0.60;;;20.10;76.70;;;;;;5034507;28;20202;-72
2023/10/21 08:09:17;;;;;;;0.67;0.53;;;19.90;77.20;;;;;;5032512;28;20194;-71
2023/10/21 08:11:45;;;;;;;3.73;1.17;;;19.80;77.30;;;;;;5032928;28;20230;-72
2023/10/21 08:14:13;;;;;;;2.17;0.70;;;19.70;77.30;;;;;;5015796;28;20294;-71
2023/10/21 08:16:42;;;;;;;0.57;0.50;;;19.70;77.60;;;;;;5016651;28;20306;-72
2023/10/21 08:19:09;;;;;;;1.83;0.70;;;19.60;77.60;;;;;;5031371;28;20204;-71
2023/10/21 08:21:36;;;;;;;0.67;0.60;;;19.80;77.00;;;;;;5035178;28;20214;-71
2023/10/21 08:24:04;;;;;;;1.37;0.90;;;19.80;76.10;;;;;;5023742;28;20195;-70
2023/10/21 08:26:33;;;;;;;2.00;0.70;;;19.90;75.90;;;;;;5032151;28;20234;-70
2023/10/21 08:29:00;;;;;;;0.60;0.60;;;20.00;75.40;;;;;;5009604;28;20233;-69
2023/10/21 08:31:28;;;;;;;1.17;0.70;;;19.90;75.30;;;;;;5053257;28;20206;-70
2023/10/21 08:33:56;;;;;;;1.60;0.93;;;20.00;75.20;;;;;;5051115;28;20257;-71
2023/10/21 08:36:23;;;;;;;0.90;0.60;;;20.10;75.00;;;;;;5041164;28;20249;-70
2023/10/21 08:38:51;;;;;;;1.60;0.70;;;20.10;74.20;;;;;;5021703;28;20226;-70
2023/10/21 08:41:19;;;;;;;1.33;0.67;;;20.20;74.50;;;;;;5022648;28;20228;-70
2023/10/21 08:43:47;;;;;;;1.87;0.70;;;20.30;74.30;;;;;;5027550;28;20227;-70
2023/10/21 08:46:16;;;;;;;1.40;0.67;;;20.40;72.30;;;;;;5032582;28;20233;-70
2023/10/21 08:48:44;;;;;;;1.57;1.00;;;20.40;70.80;;;;;;5033052;28;20206;-70
2023/10/21 08:51:16;;;;;;;1.33;0.67;;;20.40;69.70;;;;;;5019381;28;20293;-70
2023/10/21 08:53:47;;;;;;;1.60;0.97;;;20.40;68.90;;;;;;5016743;28;20285;-71
2023/10/21 08:56:14;;;;;;;2.03;0.77;;;20.60;69.10;;;;;;5044753;28;20226;-71
2023/10/21 08:58:42;;;;;;;1.70;0.50;;;20.80;67.30;;;;;;5034168;28;20311;-70
2023/10/21 09:01:10;;;;;;;0.90;0.60;;;20.90;68.00;;;;;;5018504;28;20215;-70
2023/10/21 09:03:38;;;;;;;1.13;0.67;;;21.10;66.50;;;;;;5045408;28;20712;-70
2023/10/21 09:06:07;;;;;;;0.63;0.60;;;21.10;65.50;;;;;;5024698;28;20242;-70
2023/10/21 09:08:35;;;;;;;1.43;0.77;;;21.10;64.80;;;;;;5051352;28;20229;-70
2023/10/21 09:11:06;;;;;;;5.20;0.80;;;21.20;65.10;;;;;;5047894;28;20199;-70
2023/10/21 09:13:34;;;;;;;1.30;0.73;;;21.30;63.50;;;;;;5032735;28;20760;-70
2023/10/21 09:16:04;;;;;;;1.23;0.50;;;21.40;62.90;;;;;;5033914;28;20215;-70
2023/10/21 09:18:32;;;;;;;1.53;0.80;;;21.40;63.60;;;;;;5033225;28;20210;-70
2023/10/21 09:21:00;;;;;;;0.77;0.63;;;21.40;63.60;;;;;;5031696;28;20202;-71
2023/10/21 09:23:28;;;;;;;1.30;0.60;;;21.40;63.00;;;;;;4998949;28;20765;-70
2023/10/21 09:25:56;;;;;;;1.27;1.00;;;21.40;63.50;;;;;;5033418;28;20210;-71
2023/10/21 09:28:24;;;;;;;2.17;0.73;;;21.50;63.50;;;;;;5027308;28;20194;-70
2023/10/21 09:30:58;;;;;;;1.33;1.00;;;21.60;62.60;;;;;;5044130;28;20710;-71
2023/10/21 09:33:26;;;;;;;1.07;0.60;;;21.70;62.60;;;;;;5016314;28;20447;-71
2023/10/21 09:36:03;;;;;;;1.90;0.83;;;21.60;62.30;;;;;;5013698;28;20238;-71
2023/10/21 09:38:37;;;;;;;1.50;0.70;;;21.30;62.50;;;;;;5030168;28;20198;-70
2023/10/21 09:41:09;;;;;;;2.53;0.87;;;21.20;63.40;;;;;;5024400;28;20226;-71
2023/10/21 09:43:40;;;;;;;1.13;0.70;;;21.10;63.80;;;;;;5019570;28;20226;-71
2023/10/21 09:46:11;;;;;;;0.73;0.60;;;21.10;64.00;;;;;;5013148;28;20243;-70
2023/10/21 09:48:42;;;;;;;1.83;1.00;;;21.00;64.10;;;;;;5013125;28;20294;-70
2023/10/21 09:51:12;;;;;;;0.97;0.80;;;21.10;63.30;;;;;;5047103;28;20201;-71
2023/10/21 09:53:41;;;;;;;2.37;0.87;;;21.20;63.40;;;;;;5030127;28;20229;-71
2023/10/21 09:56:11;;;;;;;1.10;0.63;;;21.20;62.90;;;;;;5021188;28;20203;-71
2023/10/21 09:58:40;;;;;;;1.17;0.80;;;21.20;62.00;;;;;;5017784;28;20209;-71
2023/10/21 10:01:10;;;;;;;0.93;0.80;;;21.40;61.50;;;;;;4993512;28;20211;-71
2023/10/21 10:03:39;;;;;;;1.53;0.93;;;21.60;61.30;;;;;;4980332;28;20601;-71
2023/10/21 10:06:08;;;;;;;1.60;0.73;;;21.80;60.20;;;;;;5019034;28;20555;-71
2023/10/21 10:08:36;;;;;;;1.73;0.70;;;21.90;60.00;;;;;;5017460;28;20205;-71
2023/10/21 10:11:11;;;;;;;2.10;0.77;;;21.90;60.10;;;;;;5040706;28;20686;-71
2023/10/21 10:13:43;;;;;;;1.90;0.90;;;22.00;58.30;;;;;;5031529;28;20267;-70
2023/10/21 10:16:20;;;;;;;1.63;1.27;;;22.10;58.20;;;;;;5020092;28;20198;-70
2023/10/21 10:18:49;;;;;;;1.70;0.70;;;22.10;58.10;;;;;;5031182;28;20226;-71
2023/10/21 10:21:18;;;;;;;2.03;0.90;;;22.20;58.70;;;;;;5027292;28;20658;-70
2023/10/21 10:23:53;;;;;;;2.67;0.90;;;22.30;58.00;;;;;;5022184;28;20314;-71
2023/10/21 10:26:45;;;;;;;4.13;1.20;;;22.50;57.80;;;;;;5011505;28;20214;-71
2023/10/21 10:29:19;;;;;;;1.07;0.77;;;22.60;56.90;;;;;;4999408;28;20213;-71
2023/10/21 10:31:46;;;;;;;2.27;0.83;;;22.60;57.40;;;;;;5015812;28;20778;-71
2023/10/21 10:34:13;;;;;;;2.13;1.10;;;22.60;57.60;;;;;;5017851;28;20201;-71
2023/10/21 10:36:40;;;;;;;1.70;0.97;;;22.70;57.40;;;;;;5022688;28;20213;-71
2023/10/21 10:39:07;;;;;;;1.50;0.73;;;22.70;57.50;;;;;;5021035;28;20827;-70
2023/10/21 10:41:48;;;;;;;1.20;0.87;;;22.90;57.00;;;;;;5022534;28;20207;-71
2023/10/21 10:44:15;;;;;;;1.30;0.80;;;22.80;56.80;;;;;;5024109;28;20218;-70
2023/10/21 10:46:42;;;;;;;2.17;0.80;;;22.80;56.10;;;;;;5019898;28;20219;-71
2023/10/21 10:49:10;;;;;;;3.20;1.10;;;22.80;56.60;;;;;;5047146;28;20464;-71
2023/10/21 10:51:43;;;;;;;2.73;0.70;;;23.00;56.80;;;;;;5045312;28;20317;-71
2023/10/21 10:54:17;;;;;;;1.60;0.73;;;23.10;56.00;;;;;;5029370;28;20202;-70
2023/10/21 10:56:47;;;;;;;1.23;0.70;;;23.10;55.90;;;;;;5015629;28;20296;-71
2023/10/21 10:59:16;;;;;;;1.30;0.70;;;23.10;55.30;;;;;;5023433;28;20213;-71
2023/10/21 11:01:45;;;;;;;1.67;0.80;;;23.10;54.90;;;;;;5015020;28;20210;-71
2023/10/21 11:04:14;;;;;;;1.30;0.70;;;23.00;55.30;;;;;;5030006;28;20234;-71
2023/10/21 11:06:44;;;;;;;1.40;0.97;;;23.10;55.00;;;;;;5034687;28;20210;-71
2023/10/21 11:09:16;;;;;;;0.40;0.40;;;23.20;54.80;;;;;;5034911;28;20209;-71
2023/10/21 11:11:51;;;;;;;1.33;0.90;;;23.60;54.30;;;;;;5028467;28;20234;-71
2023/10/21 11:14:19;;;;;;;1.93;0.80;;;23.80;55.20;;;;;;5024200;28;20206;-71
2023/10/21 11:16:49;;;;;;;4.33;0.97;;;23.70;53.80;;;;;;5015055;28;20254;-71
2023/10/21 11:19:15;;;;;;;1.57;0.77;;;23.60;54.20;;;;;;5021106;28;20205;-70
2023/10/21 11:21:48;;;;;;;1.57;0.77;;;23.60;54.60;;;;;;5025949;28;20566;-69
2023/10/21 11:24:18;;;;;;;1.40;0.90;;;23.40;54.80;;;;;;5034161;28;20238;-70
2023/10/21 11:26:49;;;;;;;2.30;1.00;;;23.30;55.10;;;;;;5052621;28;20202;-70
2023/10/21 11:29:18;;;;;;;3.17;1.10;;;23.30;55.20;;;;;;5046188;28;20215;-70
2023/10/21 11:31:45;;;;;;;0.87;0.60;;;23.30;55.70;;;;;;5034059;28;20213;-70
2023/10/21 11:34:14;;;;;;;1.53;0.67;;;23.20;55.70;;;;;;5021931;28;20285;-70
2023/10/21 11:36:44;;;;;;;1.80;0.70;;;23.10;55.90;;;;;;5017306;28;20281;-69
2023/10/21 11:39:14;;;;;;;2.23;0.83;;;23.10;56.30;;;;;;5016077;28;20286;-70
2023/10/21 11:41:45;;;;;;;0.80;0.80;;;23.10;56.60;;;;;;5035671;28;20206;-70
2023/10/21 11:44:13;;;;;;;1.33;0.80;;;23.10;56.60;;;;;;5033442;28;20227;-69
2023/10/21 11:46:42;;;;;;;2.17;1.00;;;22.90;55.70;;;;;;5012374;28;20227;-70
2023/10/21 11:49:15;;;;;;;2.73;1.20;;;22.70;56.10;;;;;;5013534;28;20234;-70
2023/10/21 11:51:42;;;;;;;1.30;0.83;;;22.70;56.60;;;;;;5012861;28;20218;-69
2023/10/21 11:54:19;;;;;;;1.97;0.90;;;22.90;56.70;;;;;;5022161;28;20564;-70
2023/10/21 11:57:25;;;;;;;1.80;0.77;;;22.90;56.60;;;;;;5031805;28;20241;-71
2023/10/21 12:05:50;;;;;;;2.70;1.00;;;22.90;56.60;;;;;;5020131;28;20226;-70
2023/10/21 12:11:16;;;;;;;1.33;1.00;;;23.30;55.70;;;;;;5022982;28;20579;-70
2023/10/21 12:14:24;;;;;;;1.20;0.80;;;23.30;55.20;;;;;;5017632;28;20199;-70
2023/10/21 12:17:01;;;;;;;1.30;0.77;;;23.70;54.30;;;;;;5012759;28;20292;-70
2023/10/21 12:19:51;;;;;;;3.50;1.10;;;23.80;53.20;;;;;;5013377;28;20230;-69
2023/10/21 12:39:19;;;;;;;0.97;0.87;;;23.20;53.10;;;;;;4995851;28;20231;-71
2023/10/21 12:41:51;;;;;;;2.03;0.90;;;22.90;53.30;;;;;;5013674;28;20215;-70
2023/10/21 12:44:23;;;;;;;1.90;0.90;;;22.70;53.80;;;;;;5019331;28;20512;-70
2023/10/21 12:46:55;;;;;;;1.53;0.97;;;22.60;53.80;;;;;;5026791;28;20203;-70
2023/10/21 12:49:27;;;;;;;2.97;1.10;;;22.70;54.40;;;;;;5031516;28;20594;-70
2023/10/21 12:51:55;;;;;;;2.93;1.00;;;22.90;54.60;;;;;;5029859;28;20301;-70
2023/10/21 12:54:23;;;;;;;3.43;1.00;;;23.10;54.00;;;;;;5018635;28;20727;-70
2023/10/21 12:56:50;;;;;;;1.20;0.77;;;23.60;53.30;;;;;;5027337;28;20238;-70
2023/10/21 12:59:19;;;;;;;1.20;0.70;;;24.60;53.20;;;;;;5030158;28;20206;-70
2023/10/21 13:01:47;;;;;;;2.90;1.00;;;25.70;51.80;;;;;;5030771;28;20226;-70
2023/10/21 13:04:15;;;;;;;1.50;0.93;;;27.00;49.70;;;;;;5029472;28;20704;-71
2023/10/21 13:06:43;;;;;;;2.30;1.10;;;28.50;47.30;;;;;;5014765;28;20208;-72
2023/10/21 13:09:23;;;;;;;1.73;0.93;;;30.10;44.70;;;;;;5027334;28;20202;-71
2023/10/21 13:11:50;;;;;;;1.20;0.97;;;31.80;40.90;;;;;;5023219;28;20614;-71
2023/10/21 13:14:18;;;;;;;2.27;0.77;;;34.10;38.40;;;;;;5029412;28;20208;-70
2023/10/21 13:16:49;;;;;;;1.87;0.90;;;35.00;35.50;;;;;;5027155;28;20204;-71
2023/10/21 13:19:15;;;;;;;1.30;0.83;;;33.80;34.00;;;;;;5021009;28;20239;-72
2023/10/21 13:21:44;;;;;;;1.70;1.00;;;35.10;33.60;;;;;;5023046;28;20293;-70